METAR és
SPECI
METAR LHBP 201730Z VRB03KT CAVOK 17/13 Q1016 NOSIG=
METAR LHBP 201700Z 24005KT CAVOK 17/12 Q1016 NOSIG=
METAR LHBP 201630Z 27007KT CAVOK 19/13 Q1016 NOSIG=
METAR LHBP 201600Z 26007KT CAVOK 19/13 Q1016 NOSIG=
METAR LHBP 201530Z 24006KT CAVOK 20/13 Q1016 NOSIG=
METAR LHBP 201500Z 27007KT CAVOK 21/13 Q1016 NOSIG=
TAF
TAF LHBP 201700Z 2018/2118 27005KT CAVOK BECMG 2019/2022 SCT035 BKN100 TEMPO 2100/2109 7000 -RA -SHRA BKN020 BKN060 BECMG 2105/2108 32012KT BECMG 2112/2115 25007KT CAVOK=
GAMET
FAHU41 LHBM 201100
LHCC GAMET VALID 201200/201800 LHBP-
BUDAPEST FIR BLW FL100
SECN 1
TURB: 12/17 MOD SFC/5000 FT AMSL W OF E01900 AND N OF N4720
SIGMETS APPLICABLE: NIL=
OMSZ: 2014. október 20. 12:38 (10:38  UTC)
[FAHU41]
AIRMET
Nincs érvényes távirat! 
WAHU41 LHBM 160545
LHCC AIRMET 01 VALID 160545/160800 LHBP-
LHCC BUDAPEST FIR BKN/OVC CLD 200-500/1000 FT AGL WKN=
SIGMET
Nincs érvényes távirat! 
WSHU31 LHBM 171515
LHCC SIGMET 03 VALID 171515/171615 LHBP-
LHCC BUDAPEST FIR SQL TS OBS AT1515Z S OF N4620 TOP FL340
MOV S NC=
SIGMET
Vulkáni hamufelhő
Nincs érvényes távirat! 
WVHU31 LHBM 271515 CCA
LHCC SIGMET 03 VALID 271515/271800 LHBP-
LHCC BUDAPEST FIR EXERCISE VOLCEX12/01
CNL VA SIGMET 02 271200/271800
EXERCISE EXERCISE EXERCISE VOLCEX12/01=